Time;durP1;ratioP1;P1;durP2;ratioP2;P2;SDS_P1;SDS_P2;PMS_P1;PMS_P2;Temp;Humidity;BMP_temperature;BMP_pressure;BME280_temperature;BME280_humidity;BME280_pressure;Samples;Min_cycle;Max_cycle;Signal;HPM_P1;HPM_P2
2021/06/08 00:02:09;;;;;;;14.57;5.32;;;19.20;99.90;;;;;;5069658;28;20048;-68
2021/06/08 00:05:16;;;;;;;5.57;4.43;;;19.20;99.90;;;;;;5069578;28;20051;-68
2021/06/08 00:08:22;;;;;;;7.18;4.22;;;19.30;99.90;;;;;;5070286;28;20479;-69
2021/06/08 00:11:26;;;;;;;7.40;4.82;;;19.30;99.90;;;;;;5069709;28;20079;-68
2021/06/08 00:14:30;;;;;;;5.95;4.53;;;19.40;99.90;;;;;;5070317;28;20039;-68
2021/06/08 00:17:34;;;;;;;8.40;5.20;;;19.40;99.90;;;;;;5073681;28;20059;-69
2021/06/08 00:20:38;;;;;;;8.88;4.80;;;19.50;99.90;;;;;;5071731;28;20056;-68
2021/06/08 00:23:42;;;;;;;5.00;4.10;;;19.40;99.90;;;;;;5075562;28;20047;-69
2021/06/08 00:26:46;;;;;;;7.32;4.93;;;19.50;99.90;;;;;;5093826;28;20043;-69
2021/06/08 00:29:50;;;;;;;10.93;5.32;;;19.50;99.90;;;;;;5093539;28;20039;-68
2021/06/08 00:32:54;;;;;;;10.77;5.47;;;19.50;99.90;;;;;;5093745;28;20050;-69
2021/06/08 00:35:59;;;;;;;8.45;5.45;;;19.40;99.90;;;;;;5092352;28;20055;-68
2021/06/08 00:39:04;;;;;;;10.35;5.80;;;19.40;99.90;;;;;;5093312;28;20047;-69
2021/06/08 00:42:09;;;;;;;8.82;5.60;;;19.30;99.90;;;;;;5092609;28;20043;-68
2021/06/08 00:45:15;;;;;;;6.90;5.30;;;19.40;99.90;;;;;;5093627;28;20375;-69
2021/06/08 00:48:20;;;;;;;7.68;5.53;;;19.40;99.90;;;;;;5092802;28;20046;-69
2021/06/08 00:51:24;;;;;;;8.48;5.70;;;19.40;99.90;;;;;;5092199;28;20055;-69
2021/06/08 00:54:28;;;;;;;11.57;5.93;;;19.40;99.90;;;;;;5093435;28;20043;-68
2021/06/08 00:57:33;;;;;;;9.70;5.82;;;19.30;99.90;;;;;;5093489;28;20508;-69
2021/06/08 01:00:37;;;;;;;9.05;6.20;;;19.20;99.90;;;;;;5092557;28;20047;-69
2021/06/08 01:03:41;;;;;;;12.00;5.85;;;19.10;99.90;;;;;;5093058;28;20061;-69
2021/06/08 01:06:48;;;;;;;9.43;6.32;;;19.00;99.90;;;;;;5092335;28;20043;-69
2021/06/08 01:09:55;;;;;;;11.77;5.43;;;19.00;99.90;;;;;;5093010;28;20039;-69
2021/06/08 01:12:59;;;;;;;8.88;6.00;;;19.00;99.90;;;;;;5092804;28;20055;-68
2021/06/08 01:16:04;;;;;;;13.35;7.32;;;19.10;99.90;;;;;;5080063;28;20054;-68
2021/06/08 01:19:08;;;;;;;10.05;6.03;;;19.10;99.90;;;;;;5071805;28;20613;-69
2021/06/08 01:22:14;;;;;;;7.95;5.68;;;19.10;99.90;;;;;;5086642;28;20054;-68
2021/06/08 01:25:18;;;;;;;11.20;6.20;;;19.10;99.90;;;;;;5092600;28;20525;-69
2021/06/08 01:28:24;;;;;;;12.73;6.25;;;19.10;99.90;;;;;;5091368;28;20047;-68
2021/06/08 01:31:30;;;;;;;7.65;6.15;;;19.10;99.90;;;;;;5071511;28;20063;-68
2021/06/08 01:34:36;;;;;;;11.30;6.43;;;19.10;99.90;;;;;;5072116;28;20052;-69
2021/06/08 01:37:41;;;;;;;9.73;6.72;;;19.10;99.90;;;;;;5071332;28;20043;-69
2021/06/08 01:40:49;;;;;;;10.25;6.13;;;19.10;99.90;;;;;;5071138;28;20060;-69
2021/06/08 01:43:54;;;;;;;11.98;7.05;;;19.10;99.90;;;;;;5071709;28;20071;-69
2021/06/08 01:46:58;;;;;;;10.45;6.80;;;19.10;99.90;;;;;;5089927;28;20047;-68
2021/06/08 01:50:03;;;;;;;10.65;6.82;;;19.00;99.90;;;;;;5091389;28;20051;-68
2021/06/08 01:53:28;;;;;;;10.88;6.60;;;18.90;99.90;;;;;;5091141;28;20059;-69
2021/06/08 01:56:34;;;;;;;10.40;6.53;;;18.90;99.90;;;;;;5091950;28;20043;-68
2021/06/08 02:00:10;;;;;;;9.63;6.60;;;18.80;99.90;;;;;;5091708;28;20054;-68
2021/06/08 02:03:37;;;;;;;11.85;6.70;;;18.80;99.90;;;;;;5068659;28;20051;-68
2021/06/08 02:07:07;;;;;;;10.32;6.43;;;18.80;99.90;;;;;;5071164;28;20051;-69
2021/06/08 02:10:23;;;;;;;8.60;6.68;;;18.80;99.90;;;;;;5070291;28;20035;-68
2021/06/08 02:13:29;;;;;;;12.25;7.43;;;18.80;99.90;;;;;;5071819;28;20486;-69
2021/06/08 02:16:43;;;;;;;13.10;7.45;;;18.70;99.90;;;;;;5087344;28;20055;-68
2021/06/08 02:19:49;;;;;;;13.20;7.18;;;18.60;99.90;;;;;;5091151;28;20047;-69
2021/06/08 02:22:58;;;;;;;10.50;7.53;;;18.60;99.90;;;;;;5090997;28;20391;-69
2021/06/08 02:26:03;;;;;;;11.43;7.75;;;18.60;99.90;;;;;;5091247;28;20047;-68
2021/06/08 02:29:09;;;;;;;13.77;7.68;;;18.70;99.90;;;;;;5090685;28;20051;-68
2021/06/08 02:32:14;;;;;;;13.85;8.40;;;18.80;99.90;;;;;;5090315;28;20051;-68
2021/06/08 02:35:21;;;;;;;10.60;7.55;;;18.80;99.90;;;;;;5091065;28;20039;-68
2021/06/08 02:38:36;;;;;;;12.95;7.90;;;18.70;99.90;;;;;;5091141;28;20046;-68
2021/06/08 02:41:41;;;;;;;16.80;8.35;;;18.70;99.90;;;;;;5090252;28;20055;-68
2021/06/08 02:44:47;;;;;;;16.52;10.27;;;18.60;99.90;;;;;;5091095;28;20047;-68
2021/06/08 02:47:52;;;;;;;17.83;10.80;;;18.60;99.90;;;;;;5070653;28;20051;-68
2021/06/08 02:50:57;;;;;;;17.33;11.55;;;18.60;99.90;;;;;;5069603;28;20395;-68
2021/06/08 02:54:02;;;;;;;22.85;10.82;;;18.50;99.90;;;;;;5070796;28;20047;-68
2021/06/08 02:57:08;;;;;;;16.80;12.15;;;18.60;99.90;;;;;;5069726;28;20039;-68
2021/06/08 03:00:12;;;;;;;16.00;10.63;;;18.50;99.90;;;;;;5078489;28;20501;-68
2021/06/08 03:03:21;;;;;;;18.90;10.43;;;18.50;99.90;;;;;;5085919;28;20486;-68
2021/06/08 03:06:35;;;;;;;18.65;10.75;;;18.60;99.90;;;;;;5070035;28;20036;-68
2021/06/08 03:09:49;;;;;;;17.67;11.77;;;18.50;99.90;;;;;;5071067;28;20391;-67
2021/06/08 03:12:57;;;;;;;16.95;11.35;;;18.60;99.90;;;;;;5070560;28;20062;-69
2021/06/08 03:16:02;;;;;;;16.73;11.05;;;18.60;99.90;;;;;;5075304;28;20063;-68
2021/06/08 03:19:10;;;;;;;20.08;10.73;;;18.50;99.90;;;;;;5080441;28;20054;-68
2021/06/08 03:22:18;;;;;;;16.38;10.88;;;18.50;99.90;;;;;;5075430;28;20069;-68
2021/06/08 03:25:24;;;;;;;24.55;12.45;;;18.50;99.90;;;;;;5085509;28;20046;-68
2021/06/08 03:28:31;;;;;;;23.92;12.25;;;18.50;99.90;;;;;;5085946;28;20059;-68
2021/06/08 03:31:36;;;;;;;21.85;12.70;;;18.50;99.90;;;;;;5089921;28;20062;-68
2021/06/08 03:34:42;;;;;;;14.77;11.98;;;18.40;99.90;;;;;;5084752;28;20043;-68
2021/06/08 03:37:48;;;;;;;18.50;12.82;;;18.40;99.90;;;;;;5069939;28;20044;-68
2021/06/08 03:40:54;;;;;;;19.67;12.60;;;18.30;99.90;;;;;;5069810;28;20043;-68
2021/06/08 03:43:59;;;;;;;22.25;13.25;;;18.30;99.90;;;;;;5082357;28;20047;-68
2021/06/08 03:47:03;;;;;;;19.80;13.48;;;18.30;99.90;;;;;;5070405;28;20411;-69
2021/06/08 03:50:11;;;;;;;22.00;12.98;;;18.30;99.90;;;;;;5070608;28;20044;-67
2021/06/08 03:53:16;;;;;;;17.25;11.88;;;18.30;99.90;;;;;;5074273;28;20055;-68
2021/06/08 03:56:20;;;;;;;26.52;13.32;;;18.30;99.90;;;;;;5074151;28;20111;-68
2021/06/08 03:59:27;;;;;;;18.00;12.90;;;18.30;99.90;;;;;;5074120;28;20047;-69
2021/06/08 04:02:32;;;;;;;18.17;11.40;;;18.30;99.90;;;;;;5074005;28;20052;-68
2021/06/08 04:05:37;;;;;;;20.55;12.02;;;18.40;99.90;;;;;;5073601;28;20509;-68
2021/06/08 04:08:42;;;;;;;21.95;12.65;;;18.40;99.90;;;;;;5073958;28;20506;-68
2021/06/08 04:11:51;;;;;;;19.10;12.20;;;18.40;99.90;;;;;;5072971;28;20410;-68
2021/06/08 04:14:57;;;;;;;20.48;11.60;;;18.50;99.90;;;;;;5073692;28;20505;-68
2021/06/08 04:18:03;;;;;;;15.88;10.82;;;18.50;99.90;;;;;;5073924;28;20052;-68
2021/06/08 04:21:07;;;;;;;13.02;10.13;;;18.60;99.90;;;;;;5071366;28;20043;-68
2021/06/08 04:24:11;;;;;;;19.27;10.95;;;18.70;99.90;;;;;;5082268;28;20074;-68
2021/06/08 04:27:22;;;;;;;16.42;10.32;;;18.70;99.90;;;;;;5093351;28;20047;-68
2021/06/08 04:30:26;;;;;;;17.95;10.45;;;18.60;99.90;;;;;;5092892;28;20503;-69
2021/06/08 04:33:30;;;;;;;18.55;11.43;;;18.60;99.90;;;;;;5093000;28;20047;-69
2021/06/08 04:36:35;;;;;;;16.30;10.55;;;18.60;99.90;;;;;;5092045;28;20043;-68
2021/06/08 04:39:39;;;;;;;16.40;10.95;;;18.60;99.90;;;;;;5091576;28;20050;-68
2021/06/08 04:42:46;;;;;;;20.90;11.18;;;18.60;99.90;;;;;;5072715;28;20106;-68
2021/06/08 04:45:52;;;;;;;19.90;11.20;;;18.50;99.90;;;;;;5090582;28;20043;-68
2021/06/08 04:48:56;;;;;;;15.63;10.25;;;18.60;99.90;;;;;;5093217;28;20517;-69
2021/06/08 04:52:01;;;;;;;12.45;9.38;;;18.80;99.90;;;;;;5091789;28;20051;-68
2021/06/08 04:55:11;;;;;;;15.30;9.05;;;18.90;99.90;;;;;;5092659;28;20043;-69
2021/06/08 04:58:15;;;;;;;16.95;10.10;;;19.00;99.90;;;;;;5093166;28;20047;-69
2021/06/08 05:01:31;;;;;;;14.32;10.57;;;19.20;99.90;;;;;;5091350;28;20059;-68
2021/06/08 05:04:40;;;;;;;15.55;11.30;;;19.30;99.90;;;;;;5091838;28;20043;-69
2021/06/08 05:08:17;;;;;;;11.95;9.45;;;19.50;99.90;;;;;;5071885;28;20471;-69
2021/06/08 05:11:24;;;;;;;12.02;9.68;;;19.60;99.90;;;;;;5072434;28;20063;-68
2021/06/08 05:14:31;;;;;;;12.40;9.02;;;19.70;99.90;;;;;;5090815;28;20043;-69
2021/06/08 05:17:37;;;;;;;17.23;10.68;;;19.80;99.90;;;;;;5092185;28;20051;-69
2021/06/08 05:20:44;;;;;;;13.63;9.73;;;19.90;99.90;;;;;;5091087;28;20039;-68
2021/06/08 05:23:51;;;;;;;19.48;11.18;;;20.00;99.90;;;;;;5089322;28;20043;-69
2021/06/08 05:26:55;;;;;;;14.93;10.00;;;20.20;99.90;;;;;;5083767;28;20185;-69
2021/06/08 05:30:00;;;;;;;15.65;10.10;;;20.40;99.90;;;;;;5067403;28;20055;-69
2021/06/08 05:33:06;;;;;;;19.05;10.13;;;20.50;99.90;;;;;;5081141;28;20046;-69
2021/06/08 05:36:10;;;;;;;15.88;10.52;;;20.60;99.90;;;;;;5090689;28;20031;-69
2021/06/08 05:39:14;;;;;;;12.23;9.85;;;20.70;99.90;;;;;;5091742;28;20051;-69
2021/06/08 05:42:19;;;;;;;16.13;9.82;;;20.90;99.90;;;;;;5091061;28;20075;-69
2021/06/08 05:45:24;;;;;;;13.82;10.15;;;21.10;99.90;;;;;;5092050;28;20799;-69
2021/06/08 05:48:28;;;;;;;14.30;9.30;;;21.20;99.90;;;;;;5091787;28;20059;-68
2021/06/08 05:51:34;;;;;;;17.67;10.88;;;21.40;99.90;;;;;;5073402;28;20039;-69
2021/06/08 05:54:40;;;;;;;15.90;9.25;;;21.40;99.90;;;;;;5091148;28;20062;-69
2021/06/08 05:57:46;;;;;;;12.75;9.20;;;21.50;99.90;;;;;;5072541;28;20047;-69
2021/06/08 06:00:51;;;;;;;13.63;8.15;;;21.60;99.90;;;;;;5087323;28;20046;-68
2021/06/08 06:03:57;;;;;;;15.35;8.45;;;21.70;99.90;;;;;;5071851;28;20039;-68
2021/06/08 06:07:02;;;;;;;10.23;8.05;;;21.80;99.90;;;;;;5085628;28;20039;-69
2021/06/08 06:10:08;;;;;;;9.35;7.05;;;21.90;99.90;;;;;;5072718;28;20046;-69
2021/06/08 06:13:23;;;;;;;11.32;7.85;;;22.10;99.90;;;;;;5088867;28;20043;-69
2021/06/08 06:16:30;;;;;;;10.45;7.28;;;22.20;99.90;;;;;;5089574;28;20059;-69
2021/06/08 06:19:36;;;;;;;9.73;6.80;;;22.30;99.90;;;;;;5089374;28;20379;-69
2021/06/08 06:22:40;;;;;;;9.48;6.85;;;22.50;99.90;;;;;;5088821;28;20043;-69
2021/06/08 06:25:45;;;;;;;10.48;7.15;;;22.60;99.90;;;;;;5087388;28;20039;-69
2021/06/08 06:28:49;;;;;;;9.55;7.03;;;22.80;99.90;;;;;;5087364;28;20043;-69
2021/06/08 06:31:56;;;;;;;9.85;6.43;;;22.90;99.90;;;;;;5088213;28;20474;-68
2021/06/08 06:35:04;;;;;;;10.23;7.13;;;23.00;99.90;;;;;;5088340;28;20043;-67
2021/06/08 06:38:10;;;;;;;11.50;7.47;;;23.10;99.90;;;;;;5089410;28;20043;-69
2021/06/08 06:41:17;;;;;;;13.27;7.25;;;23.20;99.90;;;;;;5081802;28;20066;-68
2021/06/08 06:44:23;;;;;;;14.77;7.35;;;23.10;99.90;;;;;;5069938;28;20043;-69
2021/06/08 06:47:28;;;;;;;9.15;7.43;;;23.10;99.90;;;;;;5087395;28;20382;-68
2021/06/08 06:50:40;;;;;;;12.60;7.63;;;23.10;99.90;;;;;;5085878;28;20035;-68
2021/06/08 06:53:47;;;;;;;9.27;7.00;;;22.90;99.90;;;;;;5090014;28;20055;-69
2021/06/08 06:56:56;;;;;;;10.30;7.35;;;22.90;99.90;;;;;;5081953;28;20051;-68
2021/06/08 07:00:01;;;;;;;11.75;7.22;;;23.00;99.90;;;;;;5076151;28;20498;-68
2021/06/08 07:03:07;;;;;;;10.20;6.78;;;23.10;99.90;;;;;;5087782;28;20047;-68
2021/06/08 07:06:13;;;;;;;12.73;6.70;;;23.40;99.90;;;;;;5089809;28;20047;-68
2021/06/08 07:09:23;;;;;;;11.43;6.80;;;23.60;99.90;;;;;;5083591;28;20035;-67
2021/06/08 07:12:27;;;;;;;16.05;7.13;;;23.30;99.90;;;;;;5071551;28;20039;-68
2021/06/08 07:15:34;;;;;;;19.38;7.18;;;22.70;99.90;;;;;;5083110;28;20043;-68
2021/06/08 07:18:40;;;;;;;12.02;6.72;;;23.10;99.90;;;;;;5086070;28;20043;-68
2021/06/08 07:21:47;;;;;;;14.25;8.10;;;23.60;99.90;;;;;;5082206;28;20043;-68
2021/06/08 07:24:52;;;;;;;13.40;7.45;;;23.90;99.90;;;;;;5086591;28;20047;-68
2021/06/08 07:27:57;;;;;;;8.88;6.75;;;24.20;99.90;;;;;;5090327;28;20055;-68
2021/06/08 07:31:03;;;;;;;10.13;6.10;;;24.90;99.90;;;;;;5093007;28;20039;-68
2021/06/08 07:34:14;;;;;;;10.30;6.47;;;25.40;99.90;;;;;;5080570;28;20693;-69
2021/06/08 07:37:21;;;;;;;11.00;5.78;;;25.80;99.90;;;;;;5083171;28;20086;-69
2021/06/08 07:40:28;;;;;;;8.73;5.85;;;26.30;99.90;;;;;;5089762;28;20477;-68
2021/06/08 07:43:44;;;;;;;9.73;5.43;;;26.50;99.90;;;;;;5093540;28;20043;-68
2021/06/08 07:46:49;;;;;;;8.27;5.20;;;26.60;99.90;;;;;;5091350;28;20043;-68
2021/06/08 07:49:56;;;;;;;7.93;5.28;;;26.60;99.90;;;;;;5085442;28;20114;-69
2021/06/08 07:53:02;;;;;;;7.45;5.57;;;26.70;99.90;;;;;;5093842;28;20043;-68
2021/06/08 07:56:06;;;;;;;9.27;6.63;;;26.60;99.90;;;;;;5094396;28;20055;-68
2021/06/08 07:59:10;;;;;;;10.63;6.70;;;26.40;99.90;;;;;;5094513;28;20051;-68
2021/06/08 08:02:25;;;;;;;14.25;7.47;;;26.20;99.90;;;;;;5093820;28;20394;-68
2021/06/08 08:05:29;;;;;;;11.48;6.97;;;26.00;99.90;;;;;;5093600;28;20043;-68
2021/06/08 08:08:34;;;;;;;7.90;5.93;;;25.80;99.90;;;;;;5092436;28;20654;-69
2021/06/08 08:11:42;;;;;;;8.98;5.03;;;25.80;99.90;;;;;;5093617;28;20055;-68
2021/06/08 08:14:50;;;;;;;12.30;5.90;;;25.50;99.90;;;;;;5092976;28;20090;-68
2021/06/08 08:17:55;;;;;;;9.23;5.57;;;25.40;99.90;;;;;;5093168;28;20039;-68
2021/06/08 08:21:00;;;;;;;11.57;6.03;;;25.40;99.90;;;;;;5091107;28;20039;-69
2021/06/08 08:24:04;;;;;;;7.95;5.65;;;25.40;99.90;;;;;;5092744;28;20541;-68
2021/06/08 08:27:09;;;;;;;10.05;5.97;;;25.30;99.90;;;;;;5073017;28;20039;-68
2021/06/08 08:30:15;;;;;;;11.00;8.77;;;25.30;99.90;;;;;;5089794;28;20043;-68
2021/06/08 08:33:21;;;;;;;12.23;10.52;;;25.50;99.90;;;;;;5092535;28;20043;-69
2021/06/08 08:36:28;;;;;;;21.63;12.57;;;25.60;99.90;;;;;;5081093;28;20058;-68
2021/06/08 08:39:32;;;;;;;27.67;20.02;;;25.60;99.90;;;;;;5093654;28;20383;-68
2021/06/08 08:42:38;;;;;;;17.67;10.43;;;25.60;99.90;;;;;;5092787;28;20047;-68
2021/06/08 08:45:43;;;;;;;17.38;12.95;;;25.60;99.90;;;;;;5092326;28;20399;-68
2021/06/08 08:48:54;;;;;;;17.25;12.57;;;25.60;99.90;;;;;;5093411;28;20051;-68
2021/06/08 08:51:59;;;;;;;22.17;11.75;;;25.70;99.90;;;;;;5090956;28;20047;-68
2021/06/08 08:55:05;;;;;;;26.30;16.17;;;25.70;99.90;;;;;;5091429;28;20051;-67
2021/06/08 08:58:09;;;;;;;14.77;9.73;;;25.70;99.90;;;;;;5090725;28;20047;-68
2021/06/08 09:01:14;;;;;;;21.20;12.82;;;25.80;99.90;;;;;;5092319;28;20055;-69
2021/06/08 09:04:19;;;;;;;12.75;9.32;;;25.90;99.90;;;;;;5092237;28;20051;-69
2021/06/08 09:07:24;;;;;;;10.13;7.68;;;25.90;99.90;;;;;;5090666;28;20038;-68
2021/06/08 09:10:30;;;;;;;17.45;11.38;;;26.00;99.90;;;;;;5092410;28;20043;-68
2021/06/08 09:13:34;;;;;;;18.48;10.10;;;26.10;99.90;;;;;;5092412;28;20043;-68
2021/06/08 09:16:39;;;;;;;11.05;8.38;;;26.50;99.90;;;;;;5090291;28;20082;-68
2021/06/08 09:19:44;;;;;;;17.88;14.52;;;26.90;99.90;;;;;;5090212;28;20051;-68
2021/06/08 09:22:54;;;;;;;14.48;9.52;;;27.40;99.90;;;;;;5085358;28;20375;-69
2021/06/08 09:25:59;;;;;;;14.95;9.13;;;28.40;99.90;;;;;;5091745;28;20117;-68
2021/06/08 09:29:03;;;;;;;17.00;10.30;;;29.70;99.90;;;;;;5092003;28;20050;-68
2021/06/08 09:32:22;;;;;;;15.38;8.70;;;30.30;99.90;;;;;;5090481;28;20051;-68
2021/06/08 09:35:30;;;;;;;9.80;7.22;;;31.20;99.90;;;;;;5091185;28;20055;-68
2021/06/08 09:38:39;;;;;;;13.75;7.85;;;31.60;99.90;;;;;;5091910;28;20478;-68
2021/06/08 09:41:44;;;;;;;13.30;7.07;;;32.30;99.90;;;;;;5091495;28;20047;-68
2021/06/08 09:44:50;;;;;;;13.18;8.35;;;32.70;99.50;;;;;;5091673;28;20039;-68
2021/06/08 09:48:00;;;;;;;9.10;8.13;;;32.90;98.60;;;;;;5091320;28;20047;-69
2021/06/08 09:51:04;;;;;;;8.73;6.45;;;32.70;98.10;;;;;;5084738;28;20039;-69
2021/06/08 09:54:23;;;;;;;9.27;6.32;;;33.60;97.60;;;;;;5087928;28;20039;-69
2021/06/08 09:57:28;;;;;;;8.70;5.90;;;36.00;95.30;;;;;;5085303;28;20043;-68
2021/06/08 10:00:32;;;;;;;10.68;4.97;;;38.10;93.20;;;;;;5089518;28;20050;-68
2021/06/08 10:03:43;;;;;;;7.55;5.40;;;38.40;91.40;;;;;;5089101;28;20054;-68
2021/06/08 10:06:47;;;;;;;8.10;4.85;;;38.70;90.10;;;;;;5085885;28;20051;-69
2021/06/08 10:10:21;;;;;;;7.57;5.20;;;38.60;88.50;;;;;;5090182;28;20055;-69
2021/06/08 10:13:27;;;;;;;9.85;4.50;;;38.70;88.20;;;;;;5091828;28;20050;-69
2021/06/08 10:16:32;;;;;;;8.15;4.78;;;39.40;86.50;;;;;;5091046;28;20514;-70
2021/06/08 10:19:36;;;;;;;8.55;5.43;;;39.40;83.90;;;;;;5090533;28;20050;-68
2021/06/08 10:22:40;;;;;;;8.77;5.28;;;37.70;85.10;;;;;;5090415;28;20043;-69
2021/06/08 10:25:44;;;;;;;15.45;7.18;;;35.30;87.50;;;;;;5091139;28;20039;-69
2021/06/08 10:28:49;;;;;;;17.58;8.75;;;33.30;91.00;;;;;;5091176;28;20387;-68
2021/06/08 10:31:55;;;;;;;18.63;8.95;;;31.40;94.10;;;;;;5090708;28;20047;-68
2021/06/08 10:35:00;;;;;;;15.45;8.57;;;29.90;97.50;;;;;;5090423;28;20059;-68
2021/06/08 10:38:07;;;;;;;22.90;7.35;;;28.50;99.60;;;;;;5090739;28;20055;-66
2021/06/08 10:41:12;;;;;;;14.90;6.50;;;26.80;99.90;;;;;;5090750;28;20141;-66
2021/06/08 10:44:35;;;;;;;14.98;6.63;;;25.70;99.90;;;;;;5091280;28;20047;-67
2021/06/08 11:05:04;;;;;;;7.25;3.40;;;22.20;99.90;;;;;;5076935;28;20047;-67
2021/06/08 11:08:08;;;;;;;7.88;3.30;;;21.00;99.90;;;;;;5078934;28;20043;-69
2021/06/08 11:11:12;;;;;;;8.30;2.75;;;20.50;99.90;;;;;;5085366;28;20031;-68
2021/06/08 11:17:38;;;;;;;9.55;3.67;;;20.00;99.90;;;;;;5089654;28;20039;-67
2021/06/08 11:20:44;;;;;;;8.85;3.33;;;19.80;99.90;;;;;;5087260;28;20039;-67
2021/06/08 11:23:48;;;;;;;9.25;3.63;;;19.70;99.90;;;;;;5090630;28;20043;-68
2021/06/08 11:26:53;;;;;;;16.00;3.72;;;19.70;99.90;;;;;;5089819;28;20043;-67
2021/06/08 11:30:00;;;;;;;12.25;3.55;;;19.60;99.90;;;;;;5069397;28;20052;-67
2021/06/08 11:33:31;;;;;;;10.43;3.75;;;19.60;99.90;;;;;;5070697;28;20043;-67
2021/06/08 11:36:38;;;;;;;9.93;3.50;;;19.60;99.90;;;;;;5069210;28;20648;-67
2021/06/08 11:39:42;;;;;;;8.05;3.58;;;19.60;99.90;;;;;;5073664;28;20540;-67
2021/06/08 11:43:02;;;;;;;14.52;4.45;;;19.60;99.90;;;;;;5089585;28;20118;-67
2021/06/08 11:46:12;;;;;;;12.38;3.75;;;19.70;99.90;;;;;;5089859;28;20047;-67
2021/06/08 11:49:18;;;;;;;15.50;3.80;;;19.70;99.90;;;;;;5090348;28;20058;-67
2021/06/08 11:52:23;;;;;;;13.48;4.72;;;19.70;99.90;;;;;;5089283;28;20051;-68
2021/06/08 11:55:27;;;;;;;9.55;4.32;;;19.70;99.90;;;;;;5090022;28;20050;-68
2021/06/08 11:58:33;;;;;;;10.23;5.43;;;19.90;99.90;;;;;;5090173;28;20051;-68
2021/06/08 12:01:48;;;;;;;10.23;5.30;;;20.00;99.90;;;;;;5088794;28;20035;-68
2021/06/08 12:05:11;;;;;;;12.38;5.20;;;20.10;99.90;;;;;;5089700;28;20035;-69
2021/06/08 12:08:24;;;;;;;9.63;5.43;;;20.20;99.90;;;;;;5089549;28;20047;-68
2021/06/08 12:11:28;;;;;;;;;;;20.30;99.90;;;;;;5091563;28;20063;-68
2021/06/08 12:14:33;;;;;;;9.00;5.40;;;20.50;99.90;;;;;;5083882;28;19931;-68
2021/06/08 12:17:38;;;;;;;7.50;5.45;;;20.50;99.90;;;;;;5081683;28;20042;-68
2021/06/08 12:20:46;;;;;;;15.77;5.22;;;20.70;99.90;;;;;;5069802;28;20055;-68
2021/06/08 12:23:54;;;;;;;9.75;5.65;;;20.80;99.90;;;;;;5085541;28;20047;-68
2021/06/08 12:27:04;;;;;;;10.90;5.57;;;20.90;99.90;;;;;;5091357;28;20047;-68
2021/06/08 12:30:12;;;;;;;10.15;5.75;;;21.20;99.90;;;;;;5089224;28;20086;-67
2021/06/08 12:33:16;;;;;;;17.55;6.82;;;21.30;99.90;;;;;;5090723;28;20506;-67
2021/06/08 12:36:21;;;;;;;11.60;6.70;;;21.50;99.90;;;;;;5090027;28;20051;-67
2021/06/08 12:39:28;;;;;;;11.65;7.15;;;21.70;99.90;;;;;;5090575;28;20039;-67
2021/06/08 12:42:32;;;;;;;12.48;7.00;;;22.00;99.90;;;;;;5089967;28;20164;-68
2021/06/08 12:45:36;;;;;;;16.75;12.38;;;22.20;99.90;;;;;;5090161;28;20043;-67
2021/06/08 12:48:41;;;;;;;22.13;14.82;;;22.30;99.90;;;;;;5090017;28;20043;-67
2021/06/08 12:51:53;;;;;;;33.13;20.15;;;22.50;99.90;;;;;;5088622;28;20523;-67
2021/06/08 12:54:58;;;;;;;22.73;17.35;;;22.60;99.90;;;;;;5091221;28;20497;-67
2021/06/08 12:58:10;;;;;;;24.83;18.05;;;22.80;99.90;;;;;;5091501;28;20047;-68
2021/06/08 13:01:14;;;;;;;23.57;18.17;;;22.90;99.90;;;;;;5089697;28;20047;-67
2021/06/08 13:04:20;;;;;;;29.02;18.73;;;22.80;99.90;;;;;;5090790;28;20043;-67
2021/06/08 13:07:28;;;;;;;20.73;17.05;;;23.00;99.90;;;;;;5092008;28;20039;-67
2021/06/08 13:10:37;;;;;;;23.70;16.95;;;23.00;99.90;;;;;;5078553;28;20384;-67
2021/06/08 13:13:41;;;;;;;16.55;13.15;;;23.00;99.90;;;;;;5093059;28;20407;-68
2021/06/08 13:16:45;;;;;;;22.30;15.50;;;22.80;99.90;;;;;;5082313;28;20070;-67
2021/06/08 13:19:53;;;;;;;21.65;15.55;;;22.80;99.90;;;;;;5091556;28;20062;-67
2021/06/08 13:22:57;;;;;;;20.55;14.55;;;22.70;99.90;;;;;;5091535;28;20047;-67
2021/06/08 13:26:08;;;;;;;17.23;13.85;;;22.60;99.90;;;;;;5090533;28;20047;-68
2021/06/08 13:29:21;;;;;;;22.05;13.65;;;22.50;99.90;;;;;;5084950;28;20051;-68
2021/06/08 13:32:33;;;;;;;16.40;12.13;;;22.50;99.90;;;;;;5079983;28;20490;-67
2021/06/08 13:35:50;;;;;;;15.23;11.27;;;22.60;99.90;;;;;;5091141;28;20058;-68
2021/06/08 13:39:34;;;;;;;20.17;10.40;;;22.60;99.90;;;;;;5082684;28;20054;-68
2021/06/08 13:42:39;;;;;;;14.48;10.70;;;22.50;99.90;;;;;;5070964;28;20047;-68
2021/06/08 13:45:48;;;;;;;13.18;9.45;;;22.40;99.90;;;;;;5083409;28;20051;-69
2021/06/08 13:48:55;;;;;;;13.75;9.77;;;22.40;99.90;;;;;;5091991;28;20043;-68
2021/06/08 13:52:00;;;;;;;15.02;9.40;;;22.30;99.90;;;;;;5078187;28;20043;-69
2021/06/08 13:55:10;;;;;;;14.43;9.20;;;22.40;99.90;;;;;;5077171;28;20059;-67
2021/06/08 14:01:55;;;;;;;12.25;5.95;;;22.20;99.90;;;;;;5091143;28;20051;-67
2021/06/08 14:05:01;;;;;;;6.05;4.38;;;22.10;99.90;;;;;;5071409;28;20040;-66
2021/06/08 14:08:14;;;;;;;3.28;2.97;;;22.00;99.90;;;;;;5071214;28;20067;-68
2021/06/08 14:11:38;;;;;;;15.55;6.35;;;21.80;99.90;;;;;;5070842;28;20502;-68
2021/06/08 14:14:42;;;;;;;7.63;4.25;;;21.60;99.90;;;;;;5072006;28;20051;-68
2021/06/08 14:17:47;;;;;;;7.07;4.45;;;21.20;99.90;;;;;;5071372;28;20048;-68
2021/06/08 14:20:51;;;;;;;11.05;5.70;;;20.90;99.90;;;;;;5070211;28;20498;-67
2021/06/08 14:23:57;;;;;;;8.32;5.90;;;20.70;99.90;;;;;;5084263;28;20055;-68
2021/06/08 14:27:02;;;;;;;6.47;5.00;;;20.50;99.90;;;;;;5091579;28;20047;-68
2021/06/08 14:30:09;;;;;;;5.03;3.95;;;20.50;99.90;;;;;;5090817;28;20426;-68
2021/06/08 14:33:13;;;;;;;7.72;4.85;;;20.50;99.90;;;;;;5091081;28;20047;-68
2021/06/08 14:36:20;;;;;;;9.32;4.78;;;20.30;99.90;;;;;;5070828;28;20055;-68
2021/06/08 14:39:26;;;;;;;6.85;5.38;;;20.00;99.90;;;;;;5070648;28;20063;-67
2021/06/08 14:42:30;;;;;;;13.38;6.43;;;20.10;99.90;;;;;;5070818;28;20052;-66
2021/06/08 14:45:34;;;;;;;11.50;6.40;;;20.00;99.90;;;;;;5070776;28;20063;-66
2021/06/08 14:48:40;;;;;;;10.32;6.32;;;20.00;99.90;;;;;;5070932;28;20540;-67
2021/06/08 14:51:46;;;;;;;9.60;6.80;;;20.10;99.90;;;;;;5069646;28;20035;-68
2021/06/08 14:54:51;;;;;;;11.30;8.00;;;20.10;99.90;;;;;;5069846;28;20044;-67
2021/06/08 14:57:58;;;;;;;12.43;7.57;;;20.10;99.90;;;;;;5070001;28;20383;-66
2021/06/08 15:01:04;;;;;;;18.63;7.75;;;20.20;99.90;;;;;;5070100;28;20051;-67
2021/06/08 15:04:09;;;;;;;12.43;7.57;;;20.30;99.90;;;;;;5089707;28;20042;-67
2021/06/08 15:07:14;;;;;;;8.43;6.82;;;20.40;99.90;;;;;;5090286;28;20068;-66
2021/06/08 15:10:18;;;;;;;13.65;6.68;;;20.40;99.90;;;;;;5090026;28;20047;-67
2021/06/08 15:13:24;;;;;;;10.75;6.15;;;20.40;99.90;;;;;;5078658;28;20050;-67
2021/06/08 15:16:28;;;;;;;12.85;6.30;;;20.50;99.90;;;;;;5090544;28;20422;-68
2021/06/08 15:19:32;;;;;;;10.23;6.28;;;20.50;99.90;;;;;;5090010;28;20047;-66
2021/06/08 15:22:38;;;;;;;15.20;6.90;;;20.50;99.90;;;;;;5089161;28;20502;-68
2021/06/08 15:25:43;;;;;;;10.60;6.32;;;20.60;99.90;;;;;;5090530;28;20051;-67
2021/06/08 15:28:48;;;;;;;14.90;6.32;;;20.80;99.90;;;;;;5090105;28;20043;-68
2021/06/08 15:31:53;;;;;;;13.70;8.23;;;20.70;99.90;;;;;;5089112;28;20490;-67
2021/06/08 15:34:57;;;;;;;15.25;7.78;;;19.50;99.90;;;;;;5081108;28;20064;-67
2021/06/08 15:38:02;;;;;;;14.88;7.10;;;19.30;99.90;;;;;;5069832;28;20048;-68
2021/06/08 15:41:08;;;;;;;11.68;7.35;;;19.70;99.90;;;;;;5069529;28;20048;-67
2021/06/08 15:44:12;;;;;;;12.15;6.68;;;20.10;99.90;;;;;;5070336;28;20047;-68
2021/06/08 15:47:18;;;;;;;8.35;5.88;;;20.40;99.90;;;;;;5073189;28;20062;-68
2021/06/08 15:50:22;;;;;;;12.15;5.60;;;20.60;99.90;;;;;;5074456;28;20048;-68
2021/06/08 15:53:29;;;;;;;14.55;5.97;;;20.70;99.90;;;;;;5094610;28;20047;-68
2021/06/08 15:56:36;;;;;;;13.90;6.88;;;20.80;99.90;;;;;;5093493;28;20156;-67
2021/06/08 15:59:44;;;;;;;8.88;6.97;;;20.60;99.90;;;;;;5093556;28;20054;-67
2021/06/08 16:02:49;;;;;;;14.68;6.78;;;20.60;99.90;;;;;;5093454;28;20059;-67
2021/06/08 16:05:54;;;;;;;11.45;7.07;;;20.20;99.90;;;;;;5093403;28;20106;-67
2021/06/08 16:08:57;;;;;;;11.45;6.97;;;20.10;99.90;;;;;;5094255;28;20106;-66
2021/06/08 16:12:03;;;;;;;9.32;6.88;;;20.00;99.90;;;;;;5092993;28;20095;-67
2021/06/08 16:15:08;;;;;;;12.63;6.47;;;19.60;99.90;;;;;;5093328;28;20051;-67
2021/06/08 16:18:13;;;;;;;14.60;6.97;;;19.90;99.90;;;;;;5093084;28;20055;-68
2021/06/08 16:21:17;;;;;;;9.57;6.20;;;20.10;99.90;;;;;;5092703;28;20043;-67
2021/06/08 16:24:22;;;;;;;12.50;6.22;;;20.20;99.90;;;;;;5092966;28;20394;-67
2021/06/08 16:27:26;;;;;;;16.67;7.20;;;20.50;99.90;;;;;;5094150;28;20089;-67